sensor_id;sensor_type;location;lat;lon;timestamp;pressure;altitude;pressure_sealevel;temperature;humidity
37852;BME280;23691;52.486;4.650;2023-03-03T00:01:08;102666.06;;;3.93;79.28
37852;BME280;23691;52.486;4.650;2023-03-03T00:03:34;102673.22;;;3.91;79.07
37852;BME280;23691;52.486;4.650;2023-03-03T00:06:01;102662.63;;;3.91;79.54
37852;BME280;23691;52.486;4.650;2023-03-03T00:08:27;102667.69;;;3.96;79.32
37852;BME280;23691;52.486;4.650;2023-03-03T00:10:53;102661.38;;;3.98;79.34
37852;BME280;23691;52.486;4.650;2023-03-03T00:13:24;102657.81;;;3.99;79.47
37852;BME280;23691;52.486;4.650;2023-03-03T00:15:50;102662.41;;;3.96;79.54
37852;BME280;23691;52.486;4.650;2023-03-03T00:18:29;102659.97;;;3.91;79.84
37852;BME280;23691;52.486;4.650;2023-03-03T00:20:58;102666.22;;;3.90;79.43
37852;BME280;23691;52.486;4.650;2023-03-03T00:25:56;102666.16;;;3.92;79.62
37852;BME280;23691;52.486;4.650;2023-03-03T00:28:28;102669.66;;;3.92;79.52
37852;BME280;23691;52.486;4.650;2023-03-03T00:30:59;102673.09;;;3.94;79.75
37852;BME280;23691;52.486;4.650;2023-03-03T00:33:30;102675.00;;;3.91;79.82
37852;BME280;23691;52.486;4.650;2023-03-03T00:38:39;102663.88;;;3.84;80.00
37852;BME280;23691;52.486;4.650;2023-03-03T00:41:22;102684.34;;;3.80;79.73
37852;BME280;23691;52.486;4.650;2023-03-03T00:43:48;102672.97;;;3.78;79.55
37852;BME280;23691;52.486;4.650;2023-03-03T00:46:19;102673.91;;;3.77;80.08
37852;BME280;23691;52.486;4.650;2023-03-03T00:48:46;102676.63;;;3.76;79.83
37852;BME280;23691;52.486;4.650;2023-03-03T00:51:30;102670.31;;;3.78;79.76
37852;BME280;23691;52.486;4.650;2023-03-03T00:53:58;102675.72;;;3.77;80.03
37852;BME280;23691;52.486;4.650;2023-03-03T00:56:24;102674.81;;;3.76;80.00
37852;BME280;23691;52.486;4.650;2023-03-03T00:58:50;102676.72;;;3.74;79.97
37852;BME280;23691;52.486;4.650;2023-03-03T01:01:16;102675.00;;;3.73;79.69
37852;BME280;23691;52.486;4.650;2023-03-03T01:03:42;102680.44;;;3.70;80.08
37852;BME280;23691;52.486;4.650;2023-03-03T01:06:08;102684.09;;;3.68;80.44
37852;BME280;23691;52.486;4.650;2023-03-03T01:08:33;102676.31;;;3.64;80.05
37852;BME280;23691;52.486;4.650;2023-03-03T01:11:03;102682.63;;;3.62;80.66
37852;BME280;23691;52.486;4.650;2023-03-03T01:13:33;102678.44;;;3.56;80.55
37852;BME280;23691;52.486;4.650;2023-03-03T01:16:00;102682.94;;;3.54;80.69
37852;BME280;23691;52.486;4.650;2023-03-03T01:18:26;102684.59;;;3.57;80.78
37852;BME280;23691;52.486;4.650;2023-03-03T01:20:52;102682.75;;;3.59;80.83
37852;BME280;23691;52.486;4.650;2023-03-03T01:23:17;102688.13;;;3.57;80.87
37852;BME280;23691;52.486;4.650;2023-03-03T01:25:43;102698.50;;;3.62;80.63
37852;BME280;23691;52.486;4.650;2023-03-03T01:28:08;102691.31;;;3.64;80.83
37852;BME280;23691;52.486;4.650;2023-03-03T01:30:34;102686.00;;;3.64;80.57
37852;BME280;23691;52.486;4.650;2023-03-03T01:33:00;102685.25;;;3.62;80.49
37852;BME280;23691;52.486;4.650;2023-03-03T01:35:26;102684.16;;;3.66;80.82
37852;BME280;23691;52.486;4.650;2023-03-03T01:37:51;102679.88;;;3.63;80.53
37852;BME280;23691;52.486;4.650;2023-03-03T01:40:20;102679.88;;;3.63;80.75
37852;BME280;23691;52.486;4.650;2023-03-03T01:42:46;102684.31;;;3.63;80.54
37852;BME280;23691;52.486;4.650;2023-03-03T01:45:24;102673.66;;;3.64;80.44
37852;BME280;23691;52.486;4.650;2023-03-03T01:48:06;102682.53;;;3.63;80.76
37852;BME280;23691;52.486;4.650;2023-03-03T01:50:47;102676.38;;;3.63;80.83
37852;BME280;23691;52.486;4.650;2023-03-03T01:53:23;102674.50;;;3.65;80.58
37852;BME280;23691;52.486;4.650;2023-03-03T01:55:51;102673.72;;;3.63;80.73
37852;BME280;23691;52.486;4.650;2023-03-03T01:58:25;102676.31;;;3.64;80.75
37852;BME280;23691;52.486;4.650;2023-03-03T02:00:56;102676.31;;;3.64;80.95
37852;BME280;23691;52.486;4.650;2023-03-03T02:03:23;102678.22;;;3.61;80.63
37852;BME280;23691;52.486;4.650;2023-03-03T02:05:50;102671.09;;;3.63;80.87
37852;BME280;23691;52.486;4.650;2023-03-03T02:08:24;102668.38;;;3.64;80.78
37852;BME280;23691;52.486;4.650;2023-03-03T02:10:50;102670.13;;;3.64;80.64
37852;BME280;23691;52.486;4.650;2023-03-03T02:13:16;102663.06;;;3.64;80.92
37852;BME280;23691;52.486;4.650;2023-03-03T02:15:41;102662.06;;;3.67;80.59
37852;BME280;23691;52.486;4.650;2023-03-03T02:18:12;102660.28;;;3.68;80.84
37852;BME280;23691;52.486;4.650;2023-03-03T02:23:57;102664.63;;;3.69;80.94
37852;BME280;23691;52.486;4.650;2023-03-03T02:26:27;102657.78;;;3.64;80.79
37852;BME280;23691;52.486;4.650;2023-03-03T02:28:53;102655.13;;;3.64;80.71
37852;BME280;23691;52.486;4.650;2023-03-03T02:31:22;102655.13;;;3.64;80.92
37852;BME280;23691;52.486;4.650;2023-03-03T02:33:49;102652.50;;;3.64;80.63
37852;BME280;23691;52.486;4.650;2023-03-03T02:36:41;102651.53;;;3.65;80.73
37852;BME280;23691;52.486;4.650;2023-03-03T02:39:29;102651.59;;;3.64;80.59
37852;BME280;23691;52.486;4.650;2023-03-03T02:42:02;102651.75;;;3.61;80.55
37852;BME280;23691;52.486;4.650;2023-03-03T02:44:31;102647.41;;;3.60;80.93
37852;BME280;23691;52.486;4.650;2023-03-03T02:46:57;102657.91;;;3.61;80.41
37852;BME280;23691;52.486;4.650;2023-03-03T02:49:29;102658.84;;;3.60;80.59
37852;BME280;23691;52.486;4.650;2023-03-03T02:51:58;102649.34;;;3.56;80.83
37852;BME280;23691;52.486;4.650;2023-03-03T02:54:25;102651.13;;;3.56;80.97
37852;BME280;23691;52.486;4.650;2023-03-03T02:56:51;102651.13;;;3.56;80.95
37852;BME280;23691;52.486;4.650;2023-03-03T02:59:17;102654.63;;;3.56;80.89
37852;BME280;23691;52.486;4.650;2023-03-03T03:01:44;102659.94;;;3.56;80.88
37852;BME280;23691;52.486;4.650;2023-03-03T03:04:15;102660.94;;;3.54;80.52
37852;BME280;23691;52.486;4.650;2023-03-03T03:06:40;102660.22;;;3.50;80.89
37852;BME280;23691;52.486;4.650;2023-03-03T03:09:07;102666.53;;;3.48;80.70
37852;BME280;23691;52.486;4.650;2023-03-03T03:11:34;102666.53;;;3.48;80.89
37852;BME280;23691;52.486;4.650;2023-03-03T03:14:00;102663.16;;;3.44;81.04
37852;BME280;23691;52.486;4.650;2023-03-03T03:16:26;102658.81;;;3.43;80.98
37852;BME280;23691;52.486;4.650;2023-03-03T03:18:52;102663.25;;;3.42;80.90
37852;BME280;23691;52.486;4.650;2023-03-03T03:21:17;102664.16;;;3.41;80.75
37852;BME280;23691;52.486;4.650;2023-03-03T03:23:43;102663.25;;;3.42;80.93
37852;BME280;23691;52.486;4.650;2023-03-03T03:26:08;102665.75;;;3.46;80.62
37852;BME280;23691;52.486;4.650;2023-03-03T03:28:34;102661.31;;;3.46;80.84
37852;BME280;23691;52.486;4.650;2023-03-03T03:31:03;102663.25;;;3.42;80.55
37852;BME280;23691;52.486;4.650;2023-03-03T03:33:29;102668.59;;;3.41;80.68
37852;BME280;23691;52.486;4.650;2023-03-03T03:35:56;102671.94;;;3.44;80.63
37852;BME280;23691;52.486;4.650;2023-03-03T03:38:22;102672.84;;;3.45;80.73
37852;BME280;23691;52.486;4.650;2023-03-03T03:40:48;102672.03;;;3.43;80.60
37852;BME280;23691;52.486;4.650;2023-03-03T03:43:14;102680.13;;;3.40;80.52
37852;BME280;23691;52.486;4.650;2023-03-03T03:45:42;102668.91;;;3.35;80.83
37852;BME280;23691;52.486;4.650;2023-03-03T03:48:07;102673.25;;;3.36;81.03
37852;BME280;23691;52.486;4.650;2023-03-03T03:50:33;102672.31;;;3.37;80.77
37852;BME280;23691;52.486;4.650;2023-03-03T03:52:58;102670.63;;;3.36;81.08
37852;BME280;23691;52.486;4.650;2023-03-03T03:55:23;102666.41;;;3.32;80.80
37852;BME280;23691;52.486;4.650;2023-03-03T03:57:49;102669.13;;;3.30;81.26
37852;BME280;23691;52.486;4.650;2023-03-03T04:00:15;102663.91;;;3.29;81.14
37852;BME280;23691;52.486;4.650;2023-03-03T04:02:43;102674.41;;;3.30;80.90
37852;BME280;23691;52.486;4.650;2023-03-03T04:05:08;102669.13;;;3.30;81.25
37852;BME280;23691;52.486;4.650;2023-03-03T04:07:34;102678.84;;;3.30;81.22
37852;BME280;23691;52.486;4.650;2023-03-03T04:09:59;102679.56;;;3.33;81.24
37852;BME280;23691;52.486;4.650;2023-03-03T04:12:24;102672.53;;;3.32;80.90
37852;BME280;23691;52.486;4.650;2023-03-03T04:14:50;102672.53;;;3.32;81.28
37852;BME280;23691;52.486;4.650;2023-03-03T04:17:20;102675.28;;;3.31;81.03
37852;BME280;23691;52.486;4.650;2023-03-03T04:19:45;102675.34;;;3.29;81.31
37852;BME280;23691;52.486;4.650;2023-03-03T04:22:14;102678.84;;;3.30;81.14
37852;BME280;23691;52.486;4.650;2023-03-03T04:24:40;102676.34;;;3.27;81.26
37852;BME280;23691;52.486;4.650;2023-03-03T04:27:06;102676.34;;;3.27;81.11
37852;BME280;23691;52.486;4.650;2023-03-03T04:29:35;102673.78;;;3.25;81.22
37852;BME280;23691;52.486;4.650;2023-03-03T04:32:01;102674.63;;;3.26;81.30
37852;BME280;23691;52.486;4.650;2023-03-03T04:34:26;102676.44;;;3.25;81.30
37852;BME280;23691;52.486;4.650;2023-03-03T04:36:52;102679.97;;;3.24;81.57
37852;BME280;23691;52.486;4.650;2023-03-03T04:39:17;102675.69;;;3.21;81.53
37852;BME280;23691;52.486;4.650;2023-03-03T04:41:43;102678.28;;;3.23;81.56
37852;BME280;23691;52.486;4.650;2023-03-03T04:44:08;102678.34;;;3.21;81.72
37852;BME280;23691;52.486;4.650;2023-03-03T04:46:33;102677.56;;;3.19;81.56
37852;BME280;23691;52.486;4.650;2023-03-03T04:48:59;102688.06;;;3.21;81.85
37852;BME280;23691;52.486;4.650;2023-03-03T04:51:24;102682.84;;;3.19;81.41
37852;BME280;23691;52.486;4.650;2023-03-03T04:53:50;102683.72;;;3.20;81.60
37852;BME280;23691;52.486;4.650;2023-03-03T04:56:21;102676.56;;;3.22;81.63
37852;BME280;23691;52.486;4.650;2023-03-03T04:58:48;102690.72;;;3.21;81.27
37852;BME280;23691;52.486;4.650;2023-03-03T05:01:16;102693.50;;;3.18;81.60
37852;BME280;23691;52.486;4.650;2023-03-03T05:03:46;102688.22;;;3.18;81.63
37852;BME280;23691;52.486;4.650;2023-03-03T05:06:12;102690.06;;;3.16;81.60
37852;BME280;23691;52.486;4.650;2023-03-03T05:08:37;102691.09;;;3.13;81.63
37852;BME280;23691;52.486;4.650;2023-03-03T05:11:03;102693.78;;;3.12;81.30
37852;BME280;23691;52.486;4.650;2023-03-03T05:13:31;102682.50;;;3.08;81.76
37852;BME280;23691;52.486;4.650;2023-03-03T05:15:56;102697.53;;;3.08;81.60
37852;BME280;23691;52.486;4.650;2023-03-03T05:18:23;102690.56;;;3.05;81.37
37852;BME280;23691;52.486;4.650;2023-03-03T05:20:50;102687.84;;;3.07;81.89
37852;BME280;23691;52.486;4.650;2023-03-03T05:23:16;102689.66;;;3.06;81.57
37852;BME280;23691;52.486;4.650;2023-03-03T05:25:42;102685.41;;;3.02;81.61
37852;BME280;23691;52.486;4.650;2023-03-03T05:28:09;102686.41;;;2.99;81.75
37852;BME280;23691;52.486;4.650;2023-03-03T05:30:35;102681.13;;;2.99;81.76
37852;BME280;23691;52.486;4.650;2023-03-03T05:33:01;102687.34;;;2.98;81.46
37852;BME280;23691;52.486;4.650;2023-03-03T05:35:26;102676.84;;;2.97;81.27
37852;BME280;23691;52.486;4.650;2023-03-03T05:37:53;102677.78;;;2.96;81.54
37852;BME280;23691;52.486;4.650;2023-03-03T05:40:19;102687.56;;;2.94;81.49
37852;BME280;23691;52.486;4.650;2023-03-03T05:42:44;102684.97;;;2.92;81.26
37852;BME280;23691;52.486;4.650;2023-03-03T05:45:10;102679.84;;;2.89;81.44
37852;BME280;23691;52.486;4.650;2023-03-03T05:47:36;102689.63;;;2.87;81.42
37852;BME280;23691;52.486;4.650;2023-03-03T05:50:02;102688.91;;;2.84;80.99
37852;BME280;23691;52.486;4.650;2023-03-03T05:52:28;102690.81;;;2.80;80.85
37852;BME280;23691;52.486;4.650;2023-03-03T05:54:53;102696.31;;;2.75;81.30
37852;BME280;23691;52.486;4.650;2023-03-03T05:57:18;102700.88;;;2.72;81.54
37852;BME280;23691;52.486;4.650;2023-03-03T05:59:44;102694.81;;;2.70;81.25
37852;BME280;23691;52.486;4.650;2023-03-03T06:02:09;102699.38;;;2.66;80.66
37852;BME280;23691;52.486;4.650;2023-03-03T06:04:34;102698.59;;;2.64;81.19
37852;BME280;23691;52.486;4.650;2023-03-03T06:07:00;102703.88;;;2.64;81.43
37852;BME280;23691;52.486;4.650;2023-03-03T06:09:26;102701.22;;;2.64;80.94
37852;BME280;23691;52.486;4.650;2023-03-03T06:11:51;102704.78;;;2.63;80.80
37852;BME280;23691;52.486;4.650;2023-03-03T06:14:18;102715.25;;;2.66;80.80
37852;BME280;23691;52.486;4.650;2023-03-03T06:16:46;102708.16;;;2.67;80.63
37852;BME280;23691;52.486;4.650;2023-03-03T06:19:11;102710.00;;;2.65;80.96
37852;BME280;23691;52.486;4.650;2023-03-03T06:21:37;102707.50;;;2.62;80.63
37852;BME280;23691;52.486;4.650;2023-03-03T06:24:02;102710.22;;;2.60;81.04
37852;BME280;23691;52.486;4.650;2023-03-03T06:26:30;102714.78;;;2.56;80.54
37852;BME280;23691;52.486;4.650;2023-03-03T06:28:55;102703.34;;;2.56;80.97
37852;BME280;23691;52.486;4.650;2023-03-03T06:31:21;102713.03;;;2.55;80.84
37852;BME280;23691;52.486;4.650;2023-03-03T06:33:46;102711.19;;;2.57;80.95
37852;BME280;23691;52.486;4.650;2023-03-03T06:36:11;102706.00;;;2.56;80.50
37852;BME280;23691;52.486;4.650;2023-03-03T06:38:37;102705.13;;;2.55;80.63
37852;BME280;23691;52.486;4.650;2023-03-03T06:41:03;102707.72;;;2.57;80.84
37852;BME280;23691;52.486;4.650;2023-03-03T06:43:32;102717.41;;;2.56;81.10
37852;BME280;23691;52.486;4.650;2023-03-03T06:45:57;102711.28;;;2.56;80.84
37852;BME280;23691;52.486;4.650;2023-03-03T06:48:23;102715.69;;;2.55;80.69
37852;BME280;23691;52.486;4.650;2023-03-03T06:50:48;102711.34;;;2.54;80.72
37852;BME280;23691;52.486;4.650;2023-03-03T06:53:15;102715.78;;;2.54;80.95
37852;BME280;23691;52.486;4.650;2023-03-03T06:55:41;102727.25;;;2.53;81.06
37852;BME280;23691;52.486;4.650;2023-03-03T06:58:19;102722.91;;;2.52;81.04
37852;BME280;23691;52.486;4.650;2023-03-03T07:00:56;102726.44;;;2.51;81.03
37852;BME280;23691;52.486;4.650;2023-03-03T07:03:24;102722.06;;;2.51;80.54
37852;BME280;23691;52.486;4.650;2023-03-03T07:05:51;102727.25;;;2.53;80.72
37852;BME280;23691;52.486;4.650;2023-03-03T07:08:19;102727.13;;;2.56;80.60
37852;BME280;23691;52.486;4.650;2023-03-03T07:10:45;102728.84;;;2.57;80.84
37852;BME280;23691;52.486;4.650;2023-03-03T07:13:25;102736.56;;;2.62;80.64
37852;BME280;23691;52.486;4.650;2023-03-03T07:15:53;102734.72;;;2.64;80.43
37852;BME280;23691;52.486;4.650;2023-03-03T07:20:49;102735.59;;;2.64;80.75
37852;BME280;23691;52.486;4.650;2023-03-03T07:23:22;102741.72;;;2.65;80.88
37852;BME280;23691;52.486;4.650;2023-03-03T07:25:49;102737.94;;;2.70;80.69
37852;BME280;23691;52.486;4.650;2023-03-03T07:30:46;102749.78;;;2.82;80.42
37852;BME280;23691;52.486;4.650;2023-03-03T07:33:30;102744.94;;;2.92;80.63
37852;BME280;23691;52.486;4.650;2023-03-03T07:36:01;102753.59;;;2.95;80.54
37852;BME280;23691;52.486;4.650;2023-03-03T07:38:43;102746.22;;;3.02;80.98
37852;BME280;23691;52.486;4.650;2023-03-03T07:41:17;102751.13;;;3.11;80.51
37852;BME280;23691;52.486;4.650;2023-03-03T07:43:50;102767.50;;;3.19;80.93
37852;BME280;23691;52.486;4.650;2023-03-03T07:48:56;102765.03;;;3.35;80.94
37852;BME280;23691;52.486;4.650;2023-03-03T07:51:31;102764.56;;;3.44;80.85
37852;BME280;23691;52.486;4.650;2023-03-03T07:54:39;102764.16;;;3.54;80.86
37852;BME280;23691;52.486;4.650;2023-03-03T07:57:29;102768.97;;;3.64;80.81
37852;BME280;23691;52.486;4.650;2023-03-03T08:03:03;102767.84;;;3.87;80.63
37852;BME280;23691;52.486;4.650;2023-03-03T08:05:36;102774.41;;;3.98;81.10
37852;BME280;23691;52.486;4.650;2023-03-03T08:10:47;102777.03;;;4.17;80.57
37852;BME280;23691;52.486;4.650;2023-03-03T08:13:25;102780.09;;;4.26;81.04
37852;BME280;23691;52.486;4.650;2023-03-03T08:15:59;102775.31;;;4.33;81.05
37852;BME280;23691;52.486;4.650;2023-03-03T08:18:47;102783.59;;;4.44;80.51
37852;BME280;23691;52.486;4.650;2023-03-03T08:21:19;102785.69;;;4.55;80.94
37852;BME280;23691;52.486;4.650;2023-03-03T08:23:46;102787.88;;;4.64;80.88
37852;BME280;23691;52.486;4.650;2023-03-03T08:26:16;102786.81;;;4.68;80.80
37852;BME280;23691;52.486;4.650;2023-03-03T08:28:42;102790.69;;;4.79;80.66
37852;BME280;23691;52.486;4.650;2023-03-03T08:31:07;102798.09;;;4.89;80.76
37852;BME280;23691;52.486;4.650;2023-03-03T08:33:32;102791.47;;;4.98;80.46
37852;BME280;23691;52.486;4.650;2023-03-03T08:35:58;102791.06;;;5.06;80.67
37852;BME280;23691;52.486;4.650;2023-03-03T08:38:23;102797.81;;;5.11;80.24
37852;BME280;23691;52.486;4.650;2023-03-03T08:40:49;102799.22;;;5.19;80.39
37852;BME280;23691;52.486;4.650;2023-03-03T08:43:15;102798.72;;;5.28;80.23
37852;BME280;23691;52.486;4.650;2023-03-03T08:45:45;102796.69;;;5.33;80.04
37852;BME280;23691;52.486;4.650;2023-03-03T08:48:11;102788.31;;;5.41;79.95
37852;BME280;23691;52.486;4.650;2023-03-03T08:50:37;102798.59;;;5.47;79.62
37852;BME280;23691;52.486;4.650;2023-03-03T08:53:03;102791.25;;;5.52;79.55
37852;BME280;23691;52.486;4.650;2023-03-03T08:55:29;102802.34;;;5.58;79.64
37852;BME280;23691;52.486;4.650;2023-03-03T08:57:55;102790.56;;;5.64;79.47
37852;BME280;23691;52.486;4.650;2023-03-03T09:00:21;102799.03;;;5.71;79.05
37852;BME280;23691;52.486;4.650;2023-03-03T09:02:46;102792.53;;;5.76;78.63
37852;BME280;23691;52.486;4.650;2023-03-03T09:05:12;102796.66;;;5.82;78.93
37852;BME280;23691;52.486;4.650;2023-03-03T09:07:39;102794.50;;;5.89;78.17
37852;BME280;23691;52.486;4.650;2023-03-03T09:10:05;102795.03;;;5.95;78.26
37852;BME280;23691;52.486;4.650;2023-03-03T09:12:37;102798.03;;;6.05;78.14
37852;BME280;23691;52.486;4.650;2023-03-03T09:15:22;102782.53;;;6.13;77.99
37852;BME280;23691;52.486;4.650;2023-03-03T09:17:48;102786.63;;;6.19;77.59
37852;BME280;23691;52.486;4.650;2023-03-03T09:20:30;102791.31;;;6.30;77.30
37852;BME280;23691;52.486;4.650;2023-03-03T09:22:59;102789.84;;;6.40;77.29
37852;BME280;23691;52.486;4.650;2023-03-03T09:25:36;102794.59;;;6.49;76.88
37852;BME280;23691;52.486;4.650;2023-03-03T09:28:02;102789.78;;;6.56;76.60
37852;BME280;23691;52.486;4.650;2023-03-03T09:30:35;102792.38;;;6.57;76.52
37852;BME280;23691;52.486;4.650;2023-03-03T09:33:16;102791.78;;;6.66;76.07
37852;BME280;23691;52.486;4.650;2023-03-03T09:35:44;102796.56;;;6.76;75.63
37852;BME280;23691;52.486;4.650;2023-03-03T09:38:28;102795.00;;;6.87;75.33
37852;BME280;23691;52.486;4.650;2023-03-03T10:03:57;102794.69;;;7.78;68.90
37852;BME280;23691;52.486;4.650;2023-03-03T10:06:17;102807.63;;;7.70;67.94
37852;BME280;23691;52.486;4.650;2023-03-03T10:08:55;102797.06;;;7.68;67.94
37852;BME280;23691;52.486;4.650;2023-03-03T10:11:53;102802.69;;;7.64;67.62
37852;BME280;23691;52.486;4.650;2023-03-03T10:17:06;102801.94;;;7.47;66.08
37852;BME280;23691;52.486;4.650;2023-03-03T10:19:47;102801.09;;;7.61;65.67
37852;BME280;23691;52.486;4.650;2023-03-03T10:25:16;102801.22;;;7.87;64.80
37852;BME280;23691;52.486;4.650;2023-03-03T10:28:13;102805.09;;;7.95;64.44
37852;BME280;23691;52.486;4.650;2023-03-03T10:30:53;102803.38;;;7.94;64.04
37852;BME280;23691;52.486;4.650;2023-03-03T10:57:36;102800.47;;;9.05;61.02
37852;BME280;23691;52.486;4.650;2023-03-03T11:05:42;102794.75;;;9.97;59.93
37852;BME280;23691;52.486;4.650;2023-03-03T11:13:44;102789.03;;;10.26;58.26
37852;BME280;23691;52.486;4.650;2023-03-03T11:22:23;102791.03;;;10.11;56.92
37852;BME280;23691;52.486;4.650;2023-03-03T11:25:15;102789.28;;;9.99;56.65
37852;BME280;23691;52.486;4.650;2023-03-03T11:33:39;102808.09;;;9.73;56.11
37852;BME280;23691;52.486;4.650;2023-03-03T11:36:32;102800.63;;;9.65;55.97
37852;BME280;23691;52.486;4.650;2023-03-03T11:39:07;102808.75;;;9.64;55.83
37852;BME280;23691;52.486;4.650;2023-03-03T11:41:37;102800.09;;;9.60;56.08
37852;BME280;23691;52.486;4.650;2023-03-03T11:44:32;102799.25;;;9.60;56.36
37852;BME280;23691;52.486;4.650;2023-03-03T11:47:05;102796.59;;;9.60;56.15
37852;BME280;23691;52.486;4.650;2023-03-03T11:49:52;102797.97;;;9.65;55.85
37852;BME280;23691;52.486;4.650;2023-03-03T11:55:28;102795.94;;;9.56;55.01
37852;BME280;23691;52.486;4.650;2023-03-03T11:58:20;102791.75;;;9.65;55.22
37852;BME280;23691;52.486;4.650;2023-03-03T12:01:07;102791.06;;;9.74;55.06
37852;BME280;23691;52.486;4.650;2023-03-03T12:03:41;102788.84;;;9.68;55.52
37852;BME280;23691;52.486;4.650;2023-03-03T12:12:02;102787.31;;;9.53;55.50
37852;BME280;23691;52.486;4.650;2023-03-03T12:20:24;102787.59;;;9.61;55.97
37852;BME280;23691;52.486;4.650;2023-03-03T12:25:57;102776.56;;;9.65;55.21
37852;BME280;23691;52.486;4.650;2023-03-03T12:28:31;102774.84;;;9.64;55.08
37852;BME280;23691;52.486;4.650;2023-03-03T12:31:08;102775.22;;;9.60;54.47
37852;BME280;23691;52.486;4.650;2023-03-03T12:36:53;102772.88;;;9.55;54.27
37852;BME280;23691;52.486;4.650;2023-03-03T12:39:39;102772.63;;;9.58;54.66
37852;BME280;23691;52.486;4.650;2023-03-03T12:42:33;102779.69;;;9.59;54.72
37852;BME280;23691;52.486;4.650;2023-03-03T12:47:39;102777.47;;;9.53;54.96
37852;BME280;23691;52.486;4.650;2023-03-03T13:03:44;102766.78;;;9.53;55.17
37852;BME280;23691;52.486;4.650;2023-03-03T13:06:26;102764.19;;;9.52;55.50
37852;BME280;23691;52.486;4.650;2023-03-03T13:09:00;102764.94;;;9.54;55.64
37852;BME280;23691;52.486;4.650;2023-03-03T13:16:40;102766.31;;;9.59;55.16
37852;BME280;23691;52.486;4.650;2023-03-03T13:19:15;102770.38;;;9.52;55.12
37852;BME280;23691;52.486;4.650;2023-03-03T13:21:59;102765.72;;;9.43;55.44
37852;BME280;23691;52.486;4.650;2023-03-03T13:24:39;102763.38;;;9.38;55.46
37852;BME280;23691;52.486;4.650;2023-03-03T13:27:10;102763.72;;;9.34;55.35
37852;BME280;23691;52.486;4.650;2023-03-03T13:29:42;102765.84;;;9.29;55.46
37852;BME280;23691;52.486;4.650;2023-03-03T13:34:54;102764.28;;;9.13;55.95
37852;BME280;23691;52.486;4.650;2023-03-03T13:37:41;102764.91;;;9.17;56.25
37852;BME280;23691;52.486;4.650;2023-03-03T13:42:46;102767.06;;;9.12;56.13
37852;BME280;23691;52.486;4.650;2023-03-03T13:45:22;102765.78;;;9.05;55.75
37852;BME280;23691;52.486;4.650;2023-03-03T13:50:44;102762.56;;;8.99;56.23
37852;BME280;23691;52.486;4.650;2023-03-03T13:53:24;102771.13;;;8.92;56.56
37852;BME280;23691;52.486;4.650;2023-03-03T13:59:04;102768.31;;;8.93;57.42
37852;BME280;23691;52.486;4.650;2023-03-03T14:01:56;102763.72;;;8.95;56.80
37852;BME280;23691;52.486;4.650;2023-03-03T14:04:44;102760.53;;;8.90;56.80
37852;BME280;23691;52.486;4.650;2023-03-03T14:07:29;102764.41;;;8.86;56.92
37852;BME280;23691;52.486;4.650;2023-03-03T14:10:19;102752.00;;;8.85;56.54
37852;BME280;23691;52.486;4.650;2023-03-03T14:15:23;102753.38;;;8.78;56.42
37852;BME280;23691;52.486;4.650;2023-03-03T14:18:03;102749.31;;;8.85;56.35
37852;BME280;23691;52.486;4.650;2023-03-03T14:20:46;102758.41;;;8.82;56.51
37852;BME280;23691;52.486;4.650;2023-03-03T14:23:20;102755.50;;;8.86;56.38
37852;BME280;23691;52.486;4.650;2023-03-03T14:28:23;102752.63;;;8.76;56.11
37852;BME280;23691;52.486;4.650;2023-03-03T14:30:56;102744.97;;;8.71;55.91
37852;BME280;23691;52.486;4.650;2023-03-03T14:33:26;102745.16;;;8.68;56.18
37852;BME280;23691;52.486;4.650;2023-03-03T14:43:44;102738.88;;;8.82;56.05
37852;BME280;23691;52.486;4.650;2023-03-03T14:48:59;102737.59;;;8.75;56.63
37852;BME280;23691;52.486;4.650;2023-03-03T14:51:52;102733.94;;;8.76;56.71
37852;BME280;23691;52.486;4.650;2023-03-03T14:54:27;102731.09;;;8.79;56.69
37852;BME280;23691;52.486;4.650;2023-03-03T14:59:24;102729.47;;;8.76;56.71
37852;BME280;23691;52.486;4.650;2023-03-03T15:04:41;102734.28;;;8.71;56.53
37852;BME280;23691;52.486;4.650;2023-03-03T15:07:30;102729.88;;;8.70;56.73
37852;BME280;23691;52.486;4.650;2023-03-03T15:09:57;102721.88;;;8.70;56.89
37852;BME280;23691;52.486;4.650;2023-03-03T15:17:36;102711.84;;;8.48;57.45
37852;BME280;23691;52.486;4.650;2023-03-03T15:20:17;102714.38;;;8.37;58.20
37852;BME280;23691;52.486;4.650;2023-03-03T15:27:41;102707.09;;;8.39;59.12
37852;BME280;23691;52.486;4.650;2023-03-03T15:33:20;102696.16;;;8.44;59.53
37852;BME280;23691;52.486;4.650;2023-03-03T15:36:03;102702.28;;;8.31;59.86
37852;BME280;23691;52.486;4.650;2023-03-03T15:38:48;102703.16;;;8.32;60.49
37852;BME280;23691;52.486;4.650;2023-03-03T15:41:24;102702.19;;;8.20;60.63
37852;BME280;23691;52.486;4.650;2023-03-03T15:52:09;102701.31;;;8.20;60.98
37852;BME280;23691;52.486;4.650;2023-03-03T16:02:44;102707.88;;;8.01;59.49
37852;BME280;23691;52.486;4.650;2023-03-03T16:05:33;102708.38;;;7.93;59.69
37852;BME280;23691;52.486;4.650;2023-03-03T16:08:46;102703.44;;;7.87;59.96
37852;BME280;23691;52.486;4.650;2023-03-03T16:11:06;102703.56;;;7.86;59.73
37852;BME280;23691;52.486;4.650;2023-03-03T16:16:23;102709.41;;;7.78;60.56
37852;BME280;23691;52.486;4.650;2023-03-03T16:19:10;102703.53;;;7.73;60.75
37852;BME280;23691;52.486;4.650;2023-03-03T16:21:53;102701.50;;;7.77;60.99
37852;BME280;23691;52.486;4.650;2023-03-03T16:24:37;102703.31;;;7.76;61.20
37852;BME280;23691;52.486;4.650;2023-03-03T16:30:02;102702.66;;;7.72;61.47
37852;BME280;23691;52.486;4.650;2023-03-03T16:32:39;102710.84;;;7.69;61.76
37852;BME280;23691;52.486;4.650;2023-03-03T16:35:21;102707.84;;;7.61;62.07
37852;BME280;23691;52.486;4.650;2023-03-03T16:38:04;102705.56;;;7.55;61.84
37852;BME280;23691;52.486;4.650;2023-03-03T16:40:57;102709.47;;;7.49;61.54
37852;BME280;23691;52.486;4.650;2023-03-03T16:43:33;102706.06;;;7.47;61.55
37852;BME280;23691;52.486;4.650;2023-03-03T16:48:52;102709.22;;;7.40;61.46
37852;BME280;23691;52.486;4.650;2023-03-03T16:51:45;102711.03;;;7.39;61.46